createdAt,value
2019-03-09T00:02:25.913Z,7.10
2019-03-09T00:04:56.266Z,7.00
2019-03-09T00:07:26.944Z,7.00
2019-03-09T00:09:57.450Z,6.95
2019-03-09T00:12:27.989Z,6.93
2019-03-09T00:14:58.369Z,6.91
2019-03-09T00:17:28.850Z,6.83
2019-03-09T00:19:59.582Z,6.80
2019-03-09T00:22:30.178Z,6.82
2019-03-09T00:25:02.116Z,6.81
2019-03-09T00:27:34.196Z,6.83
2019-03-09T00:30:08.440Z,6.76
2019-03-09T00:32:42.345Z,6.83
2019-03-09T00:35:14.359Z,6.76
2019-03-09T00:37:46.063Z,6.72
2019-03-09T00:40:16.433Z,6.73
2019-03-09T00:42:46.835Z,6.71
2019-03-09T00:45:17.208Z,6.70
2019-03-09T00:47:47.593Z,6.70
2019-03-09T00:50:17.970Z,6.63
2019-03-09T00:52:48.524Z,6.65
2019-03-09T00:55:19.089Z,6.62
2019-03-09T00:57:49.742Z,6.58
2019-03-09T01:00:20.305Z,6.64
2019-03-09T01:02:51.276Z,6.61
2019-03-09T01:05:22.210Z,6.59
2019-03-09T01:07:52.658Z,6.61
2019-03-09T01:10:22.994Z,6.62
2019-03-09T01:12:53.482Z,6.63
2019-03-09T01:15:23.937Z,6.74
2019-03-09T01:17:56.351Z,6.67
2019-03-09T01:20:35.962Z,6.63
2019-03-09T01:23:06.474Z,6.64
2019-03-09T01:25:41.749Z,6.60
2019-03-09T01:28:12.151Z,6.56
2019-03-09T01:30:45.056Z,6.56
2019-03-09T01:33:15.772Z,6.50
2019-03-09T01:35:46.191Z,6.48
2019-03-09T01:38:16.642Z,6.53
2019-03-09T01:40:47.149Z,6.49
2019-03-09T01:43:17.635Z,6.44
2019-03-09T01:45:48.111Z,6.52
2019-03-09T01:48:18.655Z,6.51
2019-03-09T01:50:49.105Z,6.53
2019-03-09T01:53:19.766Z,6.58
2019-03-09T01:55:50.197Z,6.53
2019-03-09T01:58:20.748Z,6.56
2019-03-09T02:00:51.324Z,6.55
2019-03-09T02:03:21.785Z,6.62
2019-03-09T02:05:52.245Z,6.66
2019-03-09T02:08:22.683Z,6.73
2019-03-09T02:10:53.161Z,6.75
2019-03-09T02:13:23.635Z,6.72
2019-03-09T02:15:54.339Z,6.70
2019-03-09T02:18:25.257Z,6.73
2019-03-09T02:20:55.732Z,6.79
2019-03-09T02:26:16.534Z,6.80
2019-03-09T02:28:47.114Z,6.87
2019-03-09T02:31:19.667Z,6.84
2019-03-09T02:33:50.144Z,6.82
2019-03-09T02:36:20.637Z,6.86
2019-03-09T02:38:53.605Z,6.79
2019-03-09T02:41:24.064Z,6.83
2019-03-09T02:43:56.058Z,6.82
2019-03-09T02:46:26.460Z,6.88
2019-03-09T02:48:57.540Z,6.93
2019-03-09T02:51:28.865Z,6.94
2019-03-09T02:53:59.291Z,6.90
2019-03-09T02:56:29.738Z,7.04
2019-03-09T02:59:00.253Z,6.98
2019-03-09T03:01:32.175Z,7.02
2019-03-09T03:04:05.403Z,6.95
2019-03-09T03:06:35.728Z,6.92
2019-03-09T03:09:06.874Z,6.96
2019-03-09T03:11:41.411Z,6.99
2019-03-09T03:17:02.797Z,7.01
2019-03-09T03:19:33.254Z,6.99
2019-03-09T03:22:03.759Z,6.93
2019-03-09T03:24:34.288Z,6.92
2019-03-09T03:27:04.743Z,6.95
2019-03-09T03:29:35.171Z,6.90
2019-03-09T03:32:05.685Z,6.96
2019-03-09T03:34:36.233Z,6.97
2019-03-09T03:37:06.681Z,7.02
2019-03-09T03:39:37.183Z,7.05
2019-03-09T03:42:07.608Z,7.07
2019-03-09T03:45:02.680Z,7.10
2019-03-09T03:47:33.157Z,7.16
2019-03-09T03:50:04.179Z,7.15
2019-03-09T03:52:36.959Z,7.17
2019-03-09T03:55:09.382Z,7.22
2019-03-09T03:57:43.238Z,7.18
2019-03-09T04:00:15.001Z,7.19
2019-03-09T04:02:45.419Z,7.17
2019-03-09T04:05:15.955Z,7.15
2019-03-09T04:07:47.781Z,7.20
2019-03-09T04:10:22.651Z,7.22
2019-03-09T04:12:53.221Z,7.13
2019-03-09T04:15:23.768Z,7.15
2019-03-09T04:17:54.301Z,7.13
2019-03-09T04:20:24.662Z,7.20
2019-03-09T04:22:55.120Z,7.15
2019-03-09T04:25:25.666Z,7.14
2019-03-09T04:27:58.147Z,7.16
2019-03-09T04:30:28.639Z,7.20
2019-03-09T04:32:59.041Z,7.21
2019-03-09T04:35:29.535Z,7.17
2019-03-09T04:38:01.727Z,7.24
2019-03-09T04:40:32.181Z,7.20
2019-03-09T04:43:02.648Z,7.21
2019-03-09T04:45:33.106Z,7.17
2019-03-09T04:48:03.570Z,7.11
2019-03-09T04:50:34.119Z,7.11
2019-03-09T04:53:12.548Z,7.09
2019-03-09T04:55:44.613Z,7.14
2019-03-09T04:58:15.136Z,7.17
2019-03-09T05:00:45.604Z,7.20
2019-03-09T05:03:16.302Z,7.21
2019-03-09T05:05:52.306Z,7.21
2019-03-09T05:08:28.706Z,7.22
2019-03-09T05:11:04.276Z,7.28
2019-03-09T05:13:37.747Z,7.23
2019-03-09T05:16:08.773Z,7.26
2019-03-09T05:18:44.520Z,7.38
2019-03-09T05:21:23.376Z,7.35
2019-03-09T05:24:00.977Z,7.35
2019-03-09T05:26:33.896Z,7.34
2019-03-09T05:29:09.246Z,7.45
2019-03-09T05:31:41.488Z,7.35
2019-03-09T05:34:12.113Z,7.37
2019-03-09T05:36:42.641Z,7.41
2019-03-09T05:39:13.184Z,7.60
2019-03-09T05:41:45.391Z,7.69
2019-03-09T05:44:15.922Z,7.72
2019-03-09T05:47:02.865Z,7.67
2019-03-09T05:49:36.712Z,7.69
2019-03-09T05:52:22.458Z,7.61
2019-03-09T05:54:52.938Z,7.75
2019-03-09T05:57:23.609Z,7.66
2019-03-09T05:59:54.853Z,7.51
2019-03-09T06:02:27.107Z,7.56
2019-03-09T06:04:57.512Z,7.59
2019-03-09T06:07:33.490Z,7.64
2019-03-09T06:10:04.974Z,7.47
2019-03-09T06:12:37.281Z,7.69
2019-03-09T06:15:07.713Z,8.03
2019-03-09T06:17:39.671Z,8.24
2019-03-09T06:20:11.855Z,7.98
2019-03-09T06:22:47.822Z,8.14
2019-03-09T06:25:19.888Z,8.26
2019-03-09T06:27:53.185Z,8.60
2019-03-09T06:30:25.188Z,8.62
2019-03-09T06:33:17.369Z,8.71
2019-03-09T06:35:56.538Z,8.47
2019-03-09T06:38:45.247Z,8.74
2019-03-09T06:41:27.990Z,8.48
2019-03-09T06:43:58.444Z,8.97
2019-03-09T06:46:30.377Z,8.74
2019-03-09T06:49:02.419Z,8.54
2019-03-09T06:51:35.130Z,8.57
2019-03-09T06:54:05.692Z,8.61
2019-03-09T06:56:36.117Z,8.58
2019-03-09T06:59:08.157Z,8.70
2019-03-09T07:01:38.673Z,8.81
2019-03-09T07:04:09.108Z,8.62
2019-03-09T07:06:39.562Z,8.76
2019-03-09T07:09:10.020Z,8.66
2019-03-09T07:11:40.471Z,8.78
2019-03-09T07:14:47.092Z,8.75
2019-03-09T07:17:19.180Z,8.70
2019-03-09T07:19:49.682Z,8.77
2019-03-09T07:22:20.143Z,9.19
2019-03-09T07:24:54.229Z,9.21
2019-03-09T07:27:24.714Z,9.25
2019-03-09T07:29:55.278Z,9.33
2019-03-09T09:41:51.298Z,10.98
2019-03-09T09:44:27.105Z,10.83
2019-03-09T09:47:01.400Z,10.85
2019-03-09T09:49:32.038Z,10.53
2019-03-09T09:52:18.729Z,10.62
2019-03-09T13:49:39.355Z,11.61
2019-03-09T14:15:54.554Z,11.45
2019-03-09T15:12:37.184Z,10.26
2019-03-09T15:15:14.310Z,10.26
2019-03-09T15:17:44.910Z,10.28
2019-03-09T15:20:34.816Z,10.32
2019-03-09T15:23:05.921Z,10.33
2019-03-09T15:25:37.888Z,10.29
2019-03-09T15:28:08.591Z,10.18
2019-03-09T15:30:39.185Z,10.10
2019-03-09T15:33:12.764Z,9.91
2019-03-09T15:35:43.331Z,9.85
2019-03-09T15:38:44.580Z,9.76
2019-03-09T15:41:02.363Z,9.58
2019-03-09T16:32:10.905Z,9.30
2019-03-09T17:20:03.003Z,7.87
2019-03-09T17:38:18.749Z,7.62
2019-03-09T17:50:03.906Z,7.43
2019-03-09T17:55:41.065Z,7.26
2019-03-09T18:07:29.750Z,7.08
2019-03-09T18:14:06.526Z,6.98
2019-03-09T18:35:52.081Z,7.06
2019-03-09T18:38:36.385Z,7.11
2019-03-09T18:41:08.576Z,7.06
2019-03-09T18:43:45.317Z,7.09
2019-03-09T18:46:22.138Z,7.14
2019-03-09T18:48:58.721Z,7.07
2019-03-09T18:51:41.829Z,7.12
2019-03-09T18:57:05.953Z,7.14
2019-03-09T18:59:37.404Z,7.13
2019-03-09T19:02:11.253Z,7.24
2019-03-09T19:04:45.202Z,7.26
2019-03-09T19:07:17.106Z,7.37
2019-03-09T19:09:52.188Z,7.35
2019-03-09T19:12:26.687Z,7.33
2019-03-09T19:15:25.113Z,7.18
2019-03-09T19:18:11.454Z,7.28
2019-03-09T19:20:48.510Z,7.18
2019-03-09T19:26:12.316Z,7.09
2019-03-09T19:28:42.778Z,7.02
2019-03-09T19:31:19.332Z,7.04
2019-03-09T19:33:59.422Z,7.11
2019-03-09T19:36:37.592Z,7.08
2019-03-09T19:39:09.897Z,7.10
2019-03-09T19:41:40.493Z,7.15
2019-03-09T19:44:12.321Z,7.28
2019-03-09T19:53:02.298Z,7.39
2019-03-09T19:55:34.431Z,7.42
2019-03-09T19:58:09.285Z,7.39
2019-03-09T20:00:42.461Z,7.42
2019-03-09T20:06:17.835Z,7.48
2019-03-09T20:08:51.073Z,7.41
2019-03-09T20:11:23.491Z,7.43
2019-03-09T20:13:57.790Z,7.36
2019-03-09T20:16:29.711Z,7.20
2019-03-09T20:19:01.110Z,7.17
2019-03-09T20:21:36.215Z,7.35
2019-03-09T20:24:11.410Z,7.21
2019-03-09T20:29:31.970Z,7.30
2019-03-09T20:32:02.360Z,7.29
2019-03-09T20:34:35.810Z,7.48
2019-03-09T20:37:14.999Z,7.28
2019-03-09T20:39:48.047Z,7.04
2019-03-09T20:42:22.105Z,6.91
2019-03-09T20:44:54.527Z,6.94
2019-03-09T20:47:29.664Z,6.83
2019-03-09T20:50:00.085Z,6.82
2019-03-09T20:52:34.539Z,6.84
2019-03-09T20:55:06.300Z,6.88
2019-03-09T20:57:42.878Z,6.82
2019-03-09T21:00:16.054Z,6.59
2019-03-09T21:02:47.562Z,6.55
2019-03-09T21:05:19.728Z,6.43
2019-03-09T21:07:50.692Z,6.32
2019-03-09T21:10:23.071Z,6.29
2019-03-09T21:13:14.911Z,6.23
2019-03-09T21:15:48.628Z,6.23
2019-03-09T21:18:20.720Z,6.19
2019-03-09T21:20:51.083Z,6.16
2019-03-09T21:23:23.103Z,6.17
2019-03-09T21:25:56.462Z,6.12
2019-03-09T21:28:26.884Z,6.28
2019-03-09T21:30:57.524Z,6.43
2019-03-09T21:33:30.399Z,6.35
2019-03-09T21:36:03.603Z,6.23
2019-03-09T21:38:36.136Z,6.23
2019-03-09T21:41:07.449Z,6.20
2019-03-09T21:43:37.832Z,6.11
2019-03-09T21:46:08.281Z,6.01
2019-03-09T21:48:40.484Z,6.15
2019-03-09T21:51:12.778Z,6.18
2019-03-09T21:56:33.396Z,6.10
2019-03-09T21:59:06.914Z,6.09
2019-03-09T22:01:38.972Z,6.24
2019-03-09T22:04:10.593Z,6.19
2019-03-09T22:06:41.004Z,6.01
2019-03-09T22:09:11.430Z,6.02
2019-03-09T22:11:41.832Z,6.05
2019-03-09T22:14:12.243Z,6.14
2019-03-09T22:16:42.705Z,6.09
2019-03-09T22:19:13.847Z,6.01
2019-03-09T22:21:47.400Z,6.20
2019-03-09T22:24:22.336Z,6.10
2019-03-09T22:27:03.191Z,6.07
2019-03-09T22:29:37.358Z,6.04
2019-03-09T22:32:10.630Z,5.95
2019-03-09T22:34:41.259Z,5.97
2019-03-09T22:37:13.229Z,5.95
2019-03-09T22:39:43.653Z,5.86
2019-03-09T22:42:14.076Z,5.87
2019-03-09T22:44:49.874Z,5.88
2019-03-09T22:47:21.443Z,5.93
2019-03-09T22:49:54.967Z,6.06
2019-03-09T22:52:27.039Z,6.04
2019-03-09T22:55:01.109Z,6.01
2019-03-09T22:57:37.516Z,5.97
2019-03-09T23:00:27.019Z,6.06
2019-03-09T23:05:57.712Z,6.08
2019-03-09T23:08:30.192Z,6.26
2019-03-09T23:14:18.636Z,6.45
2019-03-09T23:16:52.276Z,6.61
2019-03-09T23:19:22.729Z,6.54
2019-03-09T23:22:01.372Z,6.60
2019-03-09T23:24:33.276Z,6.40
2019-03-09T23:27:06.085Z,6.30
2019-03-09T23:29:38.806Z,6.20
2019-03-09T23:32:09.312Z,6.23
2019-03-09T23:34:39.732Z,6.24
2019-03-09T23:37:11.135Z,6.30
2019-03-09T23:39:43.169Z,6.36
2019-03-09T23:42:16.969Z,6.28
2019-03-09T23:47:31.476Z,6.20
2019-03-09T23:50:07.443Z,6.13
2019-03-09T23:52:37.986Z,5.96
2019-03-09T23:55:08.724Z,5.96
2019-03-09T23:57:44.341Z,6.13
